LL36 weather

Exposition Gardens Heliport
Peoria, Illinois, United States

Public forecast

Using degrees Fahrenheit for public forecast. Weather courtesy of forecast.io.

Closest aviation weather report (METAR) to Exposition Gardens Heliport

Closest report is General Wayne A. Downing Peoria International Airport, 6.9 nm (12.7 km) SSW. Retrieved 2019/12/07 10:54 UTC (19 minutes ago):

KPIA 071054Z 20003KT 10SM CLR M04/M07 A3036 RMK AO2 SLP287 T10391067

Closest aviation forecast (TAF) to Exposition Gardens Heliport

Closest forecast is General Wayne A. Downing Peoria International Airport, 6.9 nm (12.7 km) SSW. Retrieved 2019/12/07 06:24 UTC (5 hours ago):

TAF KPIA 070520Z 0706/0806 VRB04KT P6SM SKC FM071500 18010KT P6SM SCT250